Time;durP1;ratioP1;P1;durP2;ratioP2;P2;SDS_P1;SDS_P2;PMS_P1;PMS_P2;Temp;Humidity;BMP_temperature;BMP_pressure;BME280_temperature;BME280_humidity;BME280_pressure;Samples;Min_cycle;Max_cycle;Signal;HPM_P1;HPM_P2
2024/02/10 00:00:17;;;;;;;14.70;10.43;;;9.40;99.90;;;;;;5068406;28;20443;-62
2024/02/10 00:02:44;;;;;;;15.10;10.33;;;9.40;99.90;;;;;;5069101;28;20441;-63
2024/02/10 00:05:13;;;;;;;15.03;10.80;;;9.40;99.90;;;;;;5069296;28;20968;-62
2024/02/10 00:07:40;;;;;;;21.53;11.50;;;9.40;99.90;;;;;;5069892;28;20501;-61
2024/02/10 00:10:10;;;;;;;16.53;11.27;;;9.40;99.90;;;;;;5074570;28;20520;-62
2024/02/10 00:12:37;;;;;;;16.37;11.10;;;9.40;99.90;;;;;;5076712;28;20478;-62
2024/02/10 00:15:07;;;;;;;16.17;12.03;;;9.40;99.90;;;;;;5076506;28;20471;-64
2024/02/10 00:17:35;;;;;;;17.17;11.20;;;9.40;99.90;;;;;;5076417;28;20935;-63
2024/02/10 00:20:02;;;;;;;17.97;10.40;;;9.40;99.90;;;;;;5076508;28;20427;-62
2024/02/10 00:22:29;;;;;;;20.40;13.57;;;9.40;99.90;;;;;;5076387;28;20473;-63
2024/02/10 00:24:57;;;;;;;20.70;11.57;;;9.40;99.90;;;;;;5075998;28;20517;-63
2024/02/10 00:27:25;;;;;;;15.50;10.60;;;9.40;99.90;;;;;;5076346;28;20435;-64
2024/02/10 00:29:52;;;;;;;21.00;12.07;;;9.40;99.90;;;;;;5075885;28;20466;-63
2024/02/10 00:32:21;;;;;;;14.60;10.73;;;9.40;99.90;;;;;;5076191;28;20428;-63
2024/02/10 00:34:48;;;;;;;15.77;11.00;;;9.50;99.90;;;;;;5076346;28;20448;-61
2024/02/10 00:37:16;;;;;;;16.30;11.77;;;9.50;99.90;;;;;;5075909;28;20495;-62
2024/02/10 00:39:44;;;;;;;16.07;11.30;;;9.50;99.90;;;;;;5076279;28;20440;-60
2024/02/10 00:42:13;;;;;;;16.33;12.30;;;9.50;99.90;;;;;;5075910;28;20447;-59
2024/02/10 00:44:41;;;;;;;16.23;10.97;;;9.50;99.90;;;;;;5076583;28;20416;-62
2024/02/10 00:47:12;;;;;;;15.27;9.10;;;9.50;99.90;;;;;;5080368;28;20435;-63
2024/02/10 00:49:40;;;;;;;14.93;10.07;;;9.50;99.90;;;;;;5079920;28;20498;-63
2024/02/10 00:52:09;;;;;;;13.07;9.90;;;9.50;99.90;;;;;;5079053;28;20449;-62
2024/02/10 00:54:37;;;;;;;19.57;10.90;;;9.60;99.90;;;;;;5079910;28;20457;-63
2024/02/10 00:57:10;;;;;;;19.83;11.40;;;9.60;99.90;;;;;;5079605;28;20415;-62
2024/02/10 00:59:41;;;;;;;14.70;9.50;;;9.60;99.90;;;;;;5079606;28;20427;-63
2024/02/10 01:02:09;;;;;;;12.93;8.93;;;9.60;99.90;;;;;;5080009;28;20477;-63
2024/02/10 01:04:37;;;;;;;15.00;9.87;;;9.60;99.90;;;;;;5079322;28;20461;-63
2024/02/10 01:07:10;;;;;;;14.20;9.70;;;9.60;99.90;;;;;;5079534;28;20469;-64
2024/02/10 01:09:38;;;;;;;12.00;9.30;;;9.60;99.90;;;;;;5078544;28;20476;-61
2024/02/10 01:12:06;;;;;;;14.00;10.03;;;9.60;99.90;;;;;;5078567;28;20523;-62
2024/02/10 01:14:33;;;;;;;12.23;9.37;;;9.60;99.90;;;;;;5078690;28;20478;-62
2024/02/10 01:17:03;;;;;;;14.37;8.73;;;9.60;99.90;;;;;;5079055;28;20443;-62
2024/02/10 01:19:32;;;;;;;12.93;8.90;;;9.60;99.90;;;;;;5079282;28;20470;-61
2024/02/10 01:22:01;;;;;;;12.30;9.33;;;9.60;99.90;;;;;;5079423;28;20487;-61
2024/02/10 01:24:28;;;;;;;12.87;9.07;;;9.60;99.90;;;;;;5079065;28;20459;-63
2024/02/10 01:26:55;;;;;;;16.40;10.10;;;9.60;99.90;;;;;;5079132;28;20486;-64
2024/02/10 01:29:24;;;;;;;27.97;12.67;;;9.70;99.90;;;;;;5079187;28;20558;-64
2024/02/10 01:31:51;;;;;;;21.80;11.27;;;9.70;99.90;;;;;;5079012;28;20431;-62
2024/02/10 01:34:18;;;;;;;12.67;8.70;;;9.70;99.90;;;;;;5079053;28;20420;-62
2024/02/10 01:36:52;;;;;;;10.60;8.00;;;9.70;99.90;;;;;;5079341;28;20451;-62
2024/02/10 01:39:24;;;;;;;12.63;8.93;;;9.70;99.90;;;;;;5078671;28;20462;-63
2024/02/10 01:41:52;;;;;;;11.13;7.97;;;9.70;99.90;;;;;;5079312;28;20428;-63
2024/02/10 01:44:19;;;;;;;13.63;8.40;;;9.70;99.90;;;;;;5077875;28;20448;-62
2024/02/10 01:46:46;;;;;;;10.80;8.23;;;9.60;99.90;;;;;;5078851;28;20432;-63
2024/02/10 01:49:15;;;;;;;14.27;9.30;;;9.70;99.90;;;;;;5078734;28;20818;-63
2024/02/10 01:51:42;;;;;;;10.47;8.83;;;9.70;99.90;;;;;;5078835;28;20494;-62
2024/02/10 01:54:11;;;;;;;11.27;8.50;;;9.60;99.90;;;;;;5078284;28;20443;-63
2024/02/10 01:56:41;;;;;;;13.50;8.93;;;9.60;99.90;;;;;;5073271;28;21030;-61
2024/02/10 01:59:07;;;;;;;12.03;8.13;;;9.60;99.90;;;;;;5072099;28;20458;-62
2024/02/10 02:01:35;;;;;;;10.70;8.50;;;9.70;99.90;;;;;;5072779;28;20454;-63
2024/02/10 02:04:04;;;;;;;13.43;9.10;;;9.70;99.90;;;;;;5072352;28;20522;-63
2024/02/10 02:06:34;;;;;;;12.93;7.23;;;9.70;99.90;;;;;;5067300;28;20923;-62
2024/02/10 02:09:01;;;;;;;14.87;7.93;;;9.70;99.90;;;;;;5063558;28;20499;-62
2024/02/10 02:11:30;;;;;;;9.63;7.53;;;9.70;99.90;;;;;;5063634;28;20812;-62
2024/02/10 02:13:58;;;;;;;14.83;8.10;;;9.70;99.90;;;;;;5063325;28;20980;-62
2024/02/10 02:16:26;;;;;;;14.90;7.73;;;9.70;99.90;;;;;;5063872;28;20461;-62
2024/02/10 02:18:55;;;;;;;12.00;9.00;;;9.70;99.90;;;;;;5062355;28;20470;-62
2024/02/10 02:21:23;;;;;;;14.13;8.37;;;9.60;99.90;;;;;;5060214;28;20942;-63
2024/02/10 02:23:52;;;;;;;12.50;8.97;;;9.60;99.90;;;;;;5060011;28;20549;-62
2024/02/10 02:26:19;;;;;;;11.60;7.97;;;9.70;99.90;;;;;;5059894;28;20453;-61
2024/02/10 02:28:45;;;;;;;11.73;8.57;;;9.70;99.90;;;;;;5059770;28;20547;-62
2024/02/10 02:31:15;;;;;;;15.63;9.07;;;9.70;99.90;;;;;;5059785;28;20442;-62
2024/02/10 02:33:42;;;;;;;14.20;8.30;;;9.70;99.90;;;;;;5060270;28;20848;-61
2024/02/10 02:36:08;;;;;;;13.10;9.73;;;9.70;99.90;;;;;;5059920;28;20443;-62
2024/02/10 02:38:38;;;;;;;13.90;8.60;;;9.70;99.90;;;;;;5059644;28;20483;-63
2024/02/10 02:41:06;;;;;;;10.63;8.40;;;9.70;99.90;;;;;;5059709;28;20912;-64
2024/02/10 02:43:36;;;;;;;13.50;8.60;;;9.70;99.90;;;;;;5059362;28;20455;-63
2024/02/10 02:46:03;;;;;;;17.13;8.50;;;9.70;99.90;;;;;;5057306;28;20514;-61
2024/02/10 02:48:30;;;;;;;12.30;8.23;;;9.80;99.90;;;;;;5057065;28;20494;-65
2024/02/10 02:50:57;;;;;;;15.50;8.30;;;9.70;99.90;;;;;;5057552;28;20503;-62
2024/02/10 02:53:25;;;;;;;12.20;7.80;;;9.80;99.90;;;;;;5056715;28;20585;-62
2024/02/10 02:55:52;;;;;;;13.57;8.30;;;9.80;99.90;;;;;;5056177;28;20851;-63
2024/02/10 02:58:21;;;;;;;12.43;9.00;;;9.80;99.90;;;;;;5056498;28;20507;-64
2024/02/10 03:00:48;;;;;;;13.23;7.40;;;9.80;99.90;;;;;;5056088;28;20478;-63
2024/02/10 03:03:16;;;;;;;10.50;7.23;;;9.90;99.90;;;;;;5056046;28;20486;-63
2024/02/10 03:05:42;;;;;;;9.67;7.90;;;9.90;99.90;;;;;;5055885;28;20494;-62
2024/02/10 03:08:09;;;;;;;12.47;8.17;;;9.90;99.90;;;;;;5055507;28;20443;-63
2024/02/10 03:10:36;;;;;;;7.77;6.10;;;9.90;99.90;;;;;;5056002;28;20855;-63
2024/02/10 03:13:04;;;;;;;8.70;6.37;;;9.90;99.90;;;;;;5055926;28;20451;-63
2024/02/10 03:15:37;;;;;;;9.70;8.00;;;9.90;99.90;;;;;;5055541;28;20443;-61
2024/02/10 03:18:05;;;;;;;9.50;7.00;;;9.90;99.90;;;;;;5055562;28;20513;-62
2024/02/10 03:20:32;;;;;;;9.73;6.60;;;9.90;99.90;;;;;;5055880;28;20450;-64
2024/02/10 03:23:01;;;;;;;11.53;6.50;;;9.90;99.90;;;;;;5055810;28;20915;-63
2024/02/10 03:25:29;;;;;;;15.13;8.20;;;9.90;99.90;;;;;;5055685;28;20799;-62
2024/02/10 03:27:56;;;;;;;10.30;7.37;;;10.00;99.90;;;;;;5055853;28;20443;-61
2024/02/10 03:30:23;;;;;;;12.20;7.10;;;10.00;99.90;;;;;;5055256;28;20537;-62
2024/02/10 03:32:53;;;;;;;13.23;6.57;;;10.00;99.90;;;;;;5055500;28;20468;-62
2024/02/10 03:35:20;;;;;;;8.77;6.30;;;10.00;99.90;;;;;;5055215;28;20549;-62
2024/02/10 03:37:47;;;;;;;10.40;5.87;;;10.00;99.90;;;;;;5055415;28;20546;-63
2024/02/10 03:40:18;;;;;;;6.40;4.83;;;10.00;99.90;;;;;;5055396;28;20498;-62
2024/02/10 03:42:46;;;;;;;8.87;5.70;;;10.10;99.90;;;;;;5056110;28;20424;-61
2024/02/10 03:45:14;;;;;;;8.77;6.13;;;10.00;99.90;;;;;;5055534;28;20782;-62
2024/02/10 03:47:43;;;;;;;7.00;5.77;;;10.00;99.90;;;;;;5055304;28;20538;-63
2024/02/10 03:50:11;;;;;;;7.37;5.93;;;10.10;99.90;;;;;;5055782;28;20494;-62
2024/02/10 03:52:38;;;;;;;7.80;5.90;;;10.10;99.90;;;;;;5055094;28;20932;-61
2024/02/10 03:55:08;;;;;;;11.80;6.50;;;10.10;99.90;;;;;;5055201;28;20459;-61
2024/02/10 03:57:35;;;;;;;12.67;6.50;;;10.10;99.90;;;;;;5055129;28;20454;-63
2024/02/10 04:00:06;;;;;;;6.77;6.10;;;10.00;99.90;;;;;;5054695;28;20499;-63
2024/02/10 04:02:33;;;;;;;12.60;6.20;;;10.00;99.90;;;;;;5054759;28;20450;-62
2024/02/10 04:05:03;;;;;;;8.20;6.23;;;10.00;99.90;;;;;;5055049;28;20765;-63
2024/02/10 04:07:34;;;;;;;8.23;6.63;;;10.00;99.90;;;;;;5055586;28;20490;-63
2024/02/10 04:10:01;;;;;;;10.03;6.87;;;10.00;99.90;;;;;;5054630;28;20464;-63
2024/02/10 04:12:30;;;;;;;10.33;6.73;;;10.00;99.90;;;;;;5055033;28;20444;-61
2024/02/10 04:14:58;;;;;;;9.27;5.87;;;10.00;99.90;;;;;;5054808;28;20472;-63
2024/02/10 04:17:25;;;;;;;8.87;5.87;;;10.10;99.90;;;;;;5054851;28;20529;-63
2024/02/10 04:19:57;;;;;;;7.17;6.30;;;10.10;99.90;;;;;;5053730;28;20479;-61
2024/02/10 04:22:24;;;;;;;11.40;6.70;;;10.10;99.90;;;;;;5054841;28;20853;-62
2024/02/10 04:24:53;;;;;;;13.37;6.80;;;10.20;99.90;;;;;;5054862;28;20538;-64
2024/02/10 04:27:20;;;;;;;10.97;7.20;;;10.20;99.90;;;;;;5054812;28;20469;-62
2024/02/10 04:29:47;;;;;;;8.13;5.80;;;10.20;99.90;;;;;;5054294;28;20557;-65
2024/02/10 04:32:14;;;;;;;10.40;6.10;;;10.30;99.90;;;;;;5054365;28;20903;-62
2024/02/10 04:34:43;;;;;;;10.20;6.20;;;10.20;99.90;;;;;;5054185;28;20453;-65
2024/02/10 04:37:11;;;;;;;9.90;6.20;;;10.20;99.90;;;;;;5054473;28;20463;-63
2024/02/10 04:39:38;;;;;;;7.50;5.83;;;10.20;99.90;;;;;;5054393;28;20444;-63
2024/02/10 04:42:06;;;;;;;6.70;4.90;;;10.20;99.90;;;;;;5054547;28;20444;-63
2024/02/10 04:44:33;;;;;;;11.03;6.43;;;10.20;99.90;;;;;;5054527;28;20447;-63
2024/02/10 04:47:01;;;;;;;7.47;5.70;;;10.20;99.90;;;;;;5054516;28;20446;-60
2024/02/10 04:49:28;;;;;;;9.60;5.73;;;10.20;99.90;;;;;;5054923;28;20484;-64
2024/02/10 04:51:54;;;;;;;7.93;7.13;;;10.20;99.90;;;;;;5054446;28;20438;-63
2024/02/10 04:54:21;;;;;;;8.13;6.47;;;10.20;99.90;;;;;;5055108;28;20550;-62
2024/02/10 04:56:49;;;;;;;9.20;6.27;;;10.20;99.90;;;;;;5054373;28;20799;-63
2024/02/10 04:59:24;;;;;;;8.40;5.80;;;10.20;99.90;;;;;;5054610;28;20427;-64
2024/02/10 05:01:51;;;;;;;8.80;5.73;;;10.30;99.90;;;;;;5056108;28;20528;-62
2024/02/10 05:04:18;;;;;;;6.20;5.30;;;10.30;99.90;;;;;;5074901;28;20484;-63
2024/02/10 05:06:46;;;;;;;11.80;5.83;;;10.30;99.90;;;;;;5074697;28;20447;-63
2024/02/10 05:09:13;;;;;;;6.90;5.60;;;10.30;99.90;;;;;;5074928;28;20464;-63
2024/02/10 05:11:41;;;;;;;10.67;6.97;;;10.30;99.90;;;;;;5075920;28;20468;-62
2024/02/10 05:14:09;;;;;;;10.00;6.77;;;10.30;99.90;;;;;;5076941;28;20446;-62
2024/02/10 05:16:40;;;;;;;10.70;7.10;;;10.40;99.90;;;;;;5077555;28;20447;-62
2024/02/10 05:19:07;;;;;;;10.43;6.67;;;10.40;99.90;;;;;;5077646;28;20452;-63
2024/02/10 05:21:37;;;;;;;13.57;7.87;;;10.40;99.90;;;;;;5078259;28;20426;-63
2024/02/10 05:24:07;;;;;;;9.37;7.47;;;10.40;99.90;;;;;;5078270;28;20422;-61
2024/02/10 05:26:36;;;;;;;9.67;7.13;;;10.30;99.90;;;;;;5078210;28;20411;-64
2024/02/10 05:29:06;;;;;;;7.70;6.67;;;10.30;99.90;;;;;;5078104;28;20487;-62
2024/02/10 05:31:34;;;;;;;10.70;6.50;;;10.30;99.90;;;;;;5080615;28;20400;-60
2024/02/10 05:34:03;;;;;;;9.57;6.77;;;10.30;99.90;;;;;;5081889;28;20412;-62
2024/02/10 05:36:34;;;;;;;11.10;7.50;;;10.30;99.90;;;;;;5081710;28;20438;-61
2024/02/10 05:39:03;;;;;;;11.90;7.17;;;10.30;99.90;;;;;;5081782;28;20414;-62
2024/02/10 05:41:30;;;;;;;9.60;6.70;;;10.30;99.90;;;;;;5081844;28;20404;-63
2024/02/10 05:43:59;;;;;;;10.50;5.70;;;10.30;99.90;;;;;;5081771;28;21141;-60
2024/02/10 05:46:27;;;;;;;10.10;6.27;;;10.40;99.90;;;;;;5081686;28;20415;-61
2024/02/10 05:48:54;;;;;;;6.73;5.63;;;10.40;99.90;;;;;;5081731;28;20447;-62
2024/02/10 05:51:23;;;;;;;8.43;5.30;;;10.40;99.90;;;;;;5081622;28;20459;-61
2024/02/10 05:53:50;;;;;;;7.00;5.83;;;10.40;99.90;;;;;;5081502;28;20514;-63
2024/02/10 05:56:17;;;;;;;8.77;6.40;;;10.30;99.90;;;;;;5081578;28;20424;-60
2024/02/10 05:58:44;;;;;;;11.13;7.80;;;10.30;99.90;;;;;;5081363;28;20432;-64
2024/02/10 06:01:13;;;;;;;9.53;8.53;;;10.30;99.90;;;;;;5081317;28;20451;-62
2024/02/10 06:03:41;;;;;;;11.53;8.00;;;10.30;99.90;;;;;;5081393;28;20432;-61
2024/02/10 06:06:08;;;;;;;12.40;8.10;;;10.30;99.90;;;;;;5081380;28;20416;-65
2024/02/10 06:08:40;;;;;;;10.63;7.60;;;10.30;99.90;;;;;;5081059;28;20455;-61
2024/02/10 06:11:07;;;;;;;9.50;8.07;;;10.30;99.90;;;;;;5080688;28;20452;-62
2024/02/10 06:13:34;;;;;;;12.90;8.00;;;10.20;99.90;;;;;;5080783;28;20442;-62
2024/02/10 06:16:01;;;;;;;9.70;7.17;;;10.20;99.90;;;;;;5080559;28;20452;-63
2024/02/10 06:18:30;;;;;;;10.07;6.27;;;10.20;99.90;;;;;;5080533;28;20435;-64
2024/02/10 06:20:59;;;;;;;9.10;5.50;;;10.20;99.90;;;;;;5080398;28;20931;-65
2024/02/10 06:23:26;;;;;;;9.67;5.73;;;10.20;99.90;;;;;;5080184;28;20458;-63
2024/02/10 06:25:54;;;;;;;14.30;8.40;;;10.10;99.90;;;;;;5080351;28;20431;-62
2024/02/10 06:28:21;;;;;;;11.23;7.00;;;10.10;99.90;;;;;;5080325;28;20433;-63
2024/02/10 06:30:51;;;;;;;8.97;6.33;;;10.10;99.90;;;;;;5079126;28;20476;-61
2024/02/10 06:33:21;;;;;;;10.90;7.70;;;10.20;99.90;;;;;;5079174;28;20439;-61
2024/02/10 06:35:48;;;;;;;8.30;6.40;;;10.20;99.90;;;;;;5078801;28;20859;-64
2024/02/10 06:38:16;;;;;;;10.50;7.10;;;10.20;99.90;;;;;;5078696;28;20505;-64
2024/02/10 06:40:43;;;;;;;8.03;7.00;;;10.20;99.90;;;;;;5078762;28;20470;-64
2024/02/10 06:43:13;;;;;;;13.50;8.67;;;10.20;99.90;;;;;;5077840;28;20430;-63
2024/02/10 06:45:40;;;;;;;14.63;9.53;;;10.20;99.90;;;;;;5078453;28;20450;-64
2024/02/10 06:48:09;;;;;;;15.90;8.23;;;10.20;99.90;;;;;;5078819;28;20762;-63
2024/02/10 06:50:39;;;;;;;10.60;7.53;;;10.30;99.90;;;;;;5078702;28;20485;-64
2024/02/10 06:53:09;;;;;;;10.57;7.10;;;10.30;99.90;;;;;;5078946;28;20443;-63
2024/02/10 06:55:36;;;;;;;12.97;8.43;;;10.30;99.90;;;;;;5078587;28;20465;-64
2024/02/10 06:58:06;;;;;;;9.33;6.60;;;10.30;99.90;;;;;;5077799;28;20424;-65
2024/02/10 07:00:38;;;;;;;8.73;6.80;;;10.20;99.90;;;;;;5077858;28;20461;-65
2024/02/10 07:03:05;;;;;;;12.87;7.50;;;10.30;99.90;;;;;;5077886;28;20435;-62
2024/02/10 07:05:33;;;;;;;10.30;7.27;;;10.30;99.90;;;;;;5077627;28;20462;-64
2024/02/10 07:08:00;;;;;;;13.07;7.90;;;10.30;99.90;;;;;;5077535;28;20436;-64
2024/02/10 07:10:27;;;;;;;9.30;7.10;;;10.30;99.90;;;;;;5077888;28;20490;-62
2024/02/10 07:12:55;;;;;;;10.17;7.13;;;10.30;99.90;;;;;;5077253;28;20516;-61
2024/02/10 07:15:24;;;;;;;16.63;7.00;;;10.30;99.90;;;;;;5077651;28;20444;-63
2024/02/10 07:17:53;;;;;;;11.53;8.40;;;10.30;99.90;;;;;;5077695;28;20443;-64
2024/02/10 07:20:22;;;;;;;12.20;8.60;;;10.30;99.90;;;;;;5077628;28;20476;-63
2024/02/10 07:22:50;;;;;;;9.00;6.20;;;10.40;99.90;;;;;;5077001;28;20444;-62
2024/02/10 07:25:17;;;;;;;8.67;6.60;;;10.30;99.90;;;;;;5076296;28;20488;-60
2024/02/10 07:27:47;;;;;;;8.20;6.27;;;10.30;99.90;;;;;;5075997;28;20471;-62
2024/02/10 07:30:14;;;;;;;10.67;7.17;;;10.30;99.90;;;;;;5076386;28;20553;-63
2024/02/10 07:32:41;;;;;;;11.63;7.97;;;10.30;99.90;;;;;;5076815;28;20737;-65
2024/02/10 07:35:10;;;;;;;11.20;7.77;;;10.30;99.90;;;;;;5076773;28;20498;-62
2024/02/10 07:37:38;;;;;;;10.97;7.10;;;10.30;99.90;;;;;;5076514;28;20459;-64
2024/02/10 07:40:07;;;;;;;10.00;6.87;;;10.30;99.90;;;;;;5076674;28;20457;-64
2024/02/10 07:42:35;;;;;;;10.87;7.17;;;10.30;99.90;;;;;;5076679;28;20471;-61
2024/02/10 07:45:02;;;;;;;10.40;6.93;;;10.30;99.90;;;;;;5077122;28;20447;-64
2024/02/10 07:47:30;;;;;;;9.77;7.63;;;10.30;99.90;;;;;;5076121;28;20448;-66
2024/02/10 07:49:58;;;;;;;9.67;7.40;;;10.30;99.90;;;;;;5075218;28;20986;-64
2024/02/10 07:52:28;;;;;;;15.73;8.67;;;10.30;99.90;;;;;;5075170;28;20450;-61
2024/02/10 07:54:56;;;;;;;13.47;8.40;;;10.30;99.90;;;;;;5075544;28;20447;-61
2024/02/10 07:57:25;;;;;;;10.00;7.40;;;10.30;99.90;;;;;;5075118;28;20482;-64
2024/02/10 07:59:53;;;;;;;10.03;7.93;;;10.40;99.90;;;;;;5075250;28;20467;-64
2024/02/10 08:02:23;;;;;;;11.73;8.50;;;10.40;99.90;;;;;;5075445;28;20451;-63
2024/02/10 08:04:51;;;;;;;15.93;10.87;;;10.40;99.90;;;;;;5076279;28;20431;-65
2024/02/10 08:07:20;;;;;;;18.40;9.97;;;10.50;99.90;;;;;;5076338;28;20448;-63
2024/02/10 08:09:49;;;;;;;15.63;11.07;;;10.50;99.90;;;;;;5076246;28;20467;-64
2024/02/10 08:12:17;;;;;;;15.60;10.20;;;10.60;99.90;;;;;;5077266;28;20438;-63
2024/02/10 08:14:46;;;;;;;10.23;8.17;;;10.60;99.90;;;;;;5073889;28;20467;-65
2024/02/10 08:17:13;;;;;;;13.93;9.23;;;10.60;99.90;;;;;;5055120;28;20896;-64
2024/02/10 08:19:40;;;;;;;11.30;8.37;;;10.60;99.90;;;;;;5054676;28;20950;-63
2024/02/10 08:22:09;;;;;;;13.60;8.53;;;10.70;99.90;;;;;;5054747;28;20506;-62
2024/02/10 08:24:38;;;;;;;11.00;8.10;;;10.70;99.90;;;;;;5054951;28;20439;-64
2024/02/10 08:27:08;;;;;;;12.93;9.03;;;10.70;99.90;;;;;;5054723;28;20448;-63
2024/02/10 08:29:35;;;;;;;12.40;8.90;;;10.80;99.90;;;;;;5054508;28;20462;-64
2024/02/10 08:32:02;;;;;;;10.10;8.07;;;10.90;99.90;;;;;;5054711;28;20574;-63
2024/02/10 08:34:31;;;;;;;11.63;8.50;;;10.90;99.90;;;;;;5054888;28;20443;-64
2024/02/10 08:36:58;;;;;;;15.13;10.17;;;11.00;99.90;;;;;;5055103;28;20494;-65
2024/02/10 08:39:25;;;;;;;12.30;7.70;;;11.70;99.90;;;;;;5054778;28;20444;-64
2024/02/10 08:41:51;;;;;;;16.90;9.30;;;12.60;99.90;;;;;;5054706;28;21006;-62
2024/02/10 08:44:21;;;;;;;8.20;7.03;;;12.90;99.90;;;;;;5054899;28;20447;-62
2024/02/10 08:46:48;;;;;;;11.00;6.87;;;12.40;99.90;;;;;;5054560;28;20444;-63
2024/02/10 08:49:17;;;;;;;10.60;7.10;;;12.20;99.90;;;;;;5054643;28;20566;-65
2024/02/10 08:51:49;;;;;;;9.97;7.80;;;11.90;99.90;;;;;;5054669;28;20560;-64
2024/02/10 08:54:16;;;;;;;10.60;7.27;;;11.80;99.90;;;;;;5054458;28;20432;-62
2024/02/10 08:56:43;;;;;;;9.27;6.90;;;11.60;99.90;;;;;;5055682;28;20555;-62
2024/02/10 08:59:12;;;;;;;12.47;7.10;;;11.60;99.90;;;;;;5056465;28;20463;-63
2024/02/10 09:01:42;;;;;;;9.00;7.03;;;11.60;99.90;;;;;;5059899;28;21023;-61
2024/02/10 09:04:09;;;;;;;9.37;6.97;;;11.60;99.90;;;;;;5057552;28;20439;-63
2024/02/10 09:06:36;;;;;;;13.83;8.63;;;11.50;99.90;;;;;;5057479;28;20510;-59
2024/02/10 09:09:04;;;;;;;9.47;8.47;;;11.50;99.90;;;;;;5058557;28;20637;-62
2024/02/10 09:11:36;;;;;;;11.53;7.40;;;11.50;99.90;;;;;;5058384;28;20807;-63
2024/02/10 09:14:03;;;;;;;13.33;8.83;;;11.60;99.90;;;;;;5058617;28;20468;-62
2024/02/10 09:16:30;;;;;;;14.50;8.60;;;11.70;99.90;;;;;;5058104;28;20471;-62
2024/02/10 09:18:59;;;;;;;12.17;7.70;;;11.90;99.90;;;;;;5058209;28;20436;-62
2024/02/10 09:21:26;;;;;;;9.10;7.87;;;12.00;99.90;;;;;;5058067;28;20825;-63
2024/02/10 09:23:53;;;;;;;13.17;6.20;;;12.10;99.90;;;;;;5057780;28;20482;-63
2024/02/10 09:26:20;;;;;;;8.60;6.23;;;12.10;99.90;;;;;;5057653;28;20471;-64
2024/02/10 09:28:47;;;;;;;8.70;6.83;;;12.10;99.90;;;;;;5057773;28;20486;-63
2024/02/10 09:31:14;;;;;;;10.93;8.20;;;12.20;99.90;;;;;;5057602;28;20959;-62
2024/02/10 09:33:42;;;;;;;8.93;7.27;;;12.10;99.90;;;;;;5058130;28;20538;-64
2024/02/10 09:36:11;;;;;;;11.83;9.00;;;12.00;99.90;;;;;;5057822;28;20537;-63
2024/02/10 09:38:39;;;;;;;9.63;6.93;;;12.00;99.90;;;;;;5057353;28;20869;-62
2024/02/10 09:41:07;;;;;;;12.40;8.87;;;11.90;99.90;;;;;;5057699;28;20439;-62
2024/02/10 09:43:37;;;;;;;10.70;7.90;;;11.90;99.90;;;;;;5058311;28;20444;-62
2024/02/10 09:46:06;;;;;;;15.33;8.10;;;11.90;99.90;;;;;;5057551;28;20474;-62
2024/02/10 09:48:37;;;;;;;17.30;8.67;;;12.00;99.90;;;;;;5058098;28;20440;-63
2024/02/10 09:51:04;;;;;;;10.80;7.27;;;12.10;99.90;;;;;;5057416;28;20497;-62
2024/02/10 09:53:32;;;;;;;13.37;7.27;;;12.10;99.90;;;;;;5057785;28;20435;-63
2024/02/10 09:55:59;;;;;;;10.43;6.10;;;12.20;99.90;;;;;;5057487;28;20467;-62
2024/02/10 09:58:27;;;;;;;11.60;6.20;;;12.20;99.90;;;;;;5057135;28;20527;-62
2024/02/10 10:00:54;;;;;;;9.33;5.83;;;12.20;99.90;;;;;;5057374;28;20522;-64
2024/02/10 10:03:21;;;;;;;9.77;6.73;;;12.00;99.90;;;;;;5057341;28;20530;-63
2024/02/10 10:05:50;;;;;;;10.53;6.03;;;12.00;99.90;;;;;;5056897;28;20433;-61
2024/02/10 10:08:21;;;;;;;9.77;6.70;;;11.90;99.90;;;;;;5057363;28;20458;-63
2024/02/10 10:10:50;;;;;;;12.80;8.00;;;11.90;99.90;;;;;;5056947;28;20928;-61
2024/02/10 10:13:17;;;;;;;10.10;7.17;;;11.80;99.90;;;;;;5057073;28;20509;-62
2024/02/10 10:15:44;;;;;;;10.87;6.97;;;11.80;99.90;;;;;;5056689;28;20463;-62
2024/02/10 10:18:15;;;;;;;10.87;7.87;;;11.80;99.90;;;;;;5055717;28;20455;-60
2024/02/10 10:20:45;;;;;;;13.93;8.13;;;11.90;99.90;;;;;;5056846;28;20446;-63
2024/02/10 10:23:14;;;;;;;15.70;8.10;;;11.90;99.90;;;;;;5056949;28;20486;-62
2024/02/10 10:25:43;;;;;;;10.27;6.80;;;12.00;99.90;;;;;;5056771;28;20439;-62
2024/02/10 10:28:13;;;;;;;13.00;6.80;;;12.00;99.90;;;;;;5056669;28;20621;-62
2024/02/10 10:30:43;;;;;;;12.13;8.50;;;12.00;99.90;;;;;;5056711;28;20812;-61
2024/02/10 10:33:11;;;;;;;14.03;6.80;;;12.10;99.90;;;;;;5056349;28;20483;-60
2024/02/10 10:35:39;;;;;;;13.60;7.80;;;12.20;99.90;;;;;;5056311;28;20545;-61
2024/02/10 10:38:08;;;;;;;11.87;7.53;;;12.30;99.90;;;;;;5056181;28;20482;-62
2024/02/10 10:40:36;;;;;;;19.70;7.67;;;12.40;99.90;;;;;;5056237;28;20539;-62
2024/02/10 10:43:10;;;;;;;12.43;7.20;;;12.60;99.90;;;;;;5056547;28;20428;-62
2024/02/10 10:45:39;;;;;;;12.23;6.17;;;12.70;99.90;;;;;;5056283;28;20919;-60
2024/02/10 10:48:07;;;;;;;11.00;7.73;;;12.80;99.90;;;;;;5056061;28;20521;-63
2024/02/10 10:50:35;;;;;;;15.23;9.17;;;12.90;99.90;;;;;;5056345;28;20529;-62
2024/02/10 10:53:06;;;;;;;7.97;5.63;;;13.00;99.90;;;;;;5056377;28;20493;-62
2024/02/10 10:55:36;;;;;;;6.47;5.20;;;13.10;99.90;;;;;;5056034;28;20432;-61
2024/02/10 10:58:06;;;;;;;6.77;5.70;;;13.10;99.90;;;;;;5055966;28;20424;-62
2024/02/10 11:00:37;;;;;;;12.90;6.73;;;13.10;99.90;;;;;;5056178;28;20562;-62
2024/02/10 11:03:06;;;;;;;7.70;6.40;;;13.10;99.90;;;;;;5072401;28;20470;-61
2024/02/10 11:05:36;;;;;;;8.17;5.37;;;13.10;99.90;;;;;;5077207;28;20432;-62
2024/02/10 11:08:06;;;;;;;7.70;5.90;;;13.10;99.90;;;;;;5077807;28;20447;-61
2024/02/10 11:10:37;;;;;;;11.93;5.83;;;13.10;99.90;;;;;;5077021;28;20488;-62
2024/02/10 11:13:08;;;;;;;9.20;6.37;;;13.10;99.90;;;;;;5078191;28;20468;-63
2024/02/10 11:15:40;;;;;;;12.57;6.87;;;13.10;99.90;;;;;;5079548;28;20412;-63
2024/02/10 11:18:17;;;;;;;17.13;8.13;;;13.20;99.90;;;;;;5079571;28;20527;-62
2024/02/10 11:20:44;;;;;;;11.50;6.20;;;13.30;99.90;;;;;;5079603;28;20420;-60
2024/02/10 11:23:18;;;;;;;12.20;6.70;;;13.30;99.90;;;;;;5079257;28;20443;-62
2024/02/10 11:25:56;;;;;;;7.20;5.30;;;13.30;99.90;;;;;;5079507;28;20415;-61
2024/02/10 11:28:26;;;;;;;8.50;5.47;;;13.40;99.90;;;;;;5079300;28;20409;-62
2024/02/10 11:30:54;;;;;;;8.87;6.00;;;13.40;99.90;;;;;;5079224;28;20457;-62
2024/02/10 11:33:23;;;;;;;8.90;6.20;;;13.40;99.90;;;;;;5079380;28;20431;-62
2024/02/10 11:35:52;;;;;;;6.80;5.23;;;13.40;99.90;;;;;;5079425;28;20424;-62
2024/02/10 11:38:23;;;;;;;7.70;5.60;;;13.50;99.90;;;;;;5079178;28;20457;-63
2024/02/10 11:40:53;;;;;;;11.03;6.37;;;13.60;99.90;;;;;;5079181;28;20420;-62
2024/02/10 11:43:26;;;;;;;11.83;6.03;;;13.70;99.90;;;;;;5079094;28;20494;-60
2024/02/10 11:45:57;;;;;;;7.77;5.57;;;13.80;99.90;;;;;;5079109;28;20423;-61
2024/02/10 11:48:25;;;;;;;7.00;5.87;;;13.80;99.90;;;;;;5079000;28;20535;-60
2024/02/10 11:50:52;;;;;;;5.77;4.77;;;13.90;99.90;;;;;;5078461;28;20424;-63
2024/02/10 11:53:22;;;;;;;8.77;5.13;;;13.90;99.90;;;;;;5078918;28;20430;-61
2024/02/10 11:55:50;;;;;;;10.43;6.43;;;13.90;99.90;;;;;;5078517;28;20467;-60
2024/02/10 11:58:18;;;;;;;8.40;5.70;;;13.90;99.90;;;;;;5078743;28;20427;-56
2024/02/10 12:00:45;;;;;;;11.43;5.50;;;14.00;99.90;;;;;;5078760;28;20424;-58
2024/02/10 12:03:20;;;;;;;12.83;8.13;;;14.10;99.90;;;;;;5078740;28;20432;-61
2024/02/10 12:05:49;;;;;;;7.97;5.70;;;14.10;99.90;;;;;;5078680;28;20450;-61
2024/02/10 12:08:16;;;;;;;8.37;5.50;;;14.20;99.90;;;;;;5078555;28;20486;-58
2024/02/10 12:10:46;;;;;;;32.40;16.30;;;14.30;99.90;;;;;;5078269;28;20412;-57
2024/02/10 12:13:19;;;;;;;10.73;7.80;;;14.30;99.90;;;;;;5078209;28;20487;-62
2024/02/10 12:15:46;;;;;;;9.90;5.27;;;14.40;99.90;;;;;;5078458;28;20429;-57
2024/02/10 12:18:14;;;;;;;5.10;3.63;;;14.50;99.90;;;;;;5078312;28;20417;-61
2024/02/10 12:20:41;;;;;;;6.30;4.40;;;14.50;99.90;;;;;;5078607;28;20432;-61
2024/02/10 12:23:14;;;;;;;7.93;4.67;;;14.60;99.90;;;;;;5078291;28;20454;-60
2024/02/10 12:25:41;;;;;;;4.50;3.30;;;14.70;99.90;;;;;;5077742;28;20471;-60
2024/02/10 12:28:08;;;;;;;3.10;2.80;;;14.80;99.90;;;;;;5077433;28;20475;-59
2024/02/10 12:30:44;;;;;;;4.67;3.20;;;14.80;99.90;;;;;;5077727;28;20472;-61
2024/02/10 12:33:11;;;;;;;4.63;3.10;;;14.80;99.90;;;;;;5077247;28;20474;-62
2024/02/10 12:35:38;;;;;;;5.00;2.53;;;14.80;99.90;;;;;;5077544;28;20466;-57
2024/02/10 12:38:12;;;;;;;4.07;2.90;;;14.80;99.90;;;;;;5077451;28;20443;-58
2024/02/10 12:40:43;;;;;;;4.23;2.87;;;14.80;99.90;;;;;;5076457;28;20432;-57
2024/02/10 12:43:13;;;;;;;4.80;3.17;;;14.90;99.90;;;;;;5077266;28;20412;-62
2024/02/10 12:45:47;;;;;;;3.90;2.77;;;14.90;99.90;;;;;;5076501;28;20443;-56
2024/02/10 12:48:15;;;;;;;4.70;2.90;;;15.00;99.90;;;;;;5076815;28;20425;-61